sensor_id;sensor_type;location;lat;lon;timestamp;pressure;altitude;pressure_sealevel;temperature;humidity
56831;BME280;42713;42.676;23.352;2022-08-14T00:02:16;94254.72;;;19.40;77.52
56831;BME280;42713;42.676;23.352;2022-08-14T00:04:42;94246.91;;;19.35;77.76
56831;BME280;42713;42.676;23.352;2022-08-14T00:07:09;94245.34;;;19.34;77.76
56831;BME280;42713;42.676;23.352;2022-08-14T00:09:35;94246.13;;;19.34;77.72
56831;BME280;42713;42.676;23.352;2022-08-14T00:12:00;94240.66;;;19.31;77.99
56831;BME280;42713;42.676;23.352;2022-08-14T00:14:27;94238.47;;;19.33;77.84
56831;BME280;42713;42.676;23.352;2022-08-14T00:16:52;94237.19;;;19.30;78.01
56831;BME280;42713;42.676;23.352;2022-08-14T00:19:20;94225.47;;;19.31;77.83
56831;BME280;42713;42.676;23.352;2022-08-14T00:21:49;94228.47;;;19.29;77.80
56831;BME280;42713;42.676;23.352;2022-08-14T00:24:15;94235.34;;;19.31;77.86
56831;BME280;42713;42.676;23.352;2022-08-14T00:26:41;94228.47;;;19.29;77.88
56831;BME280;42713;42.676;23.352;2022-08-14T00:29:07;94232.69;;;19.31;77.63
56831;BME280;42713;42.676;23.352;2022-08-14T00:31:32;94236.09;;;19.31;77.30
56831;BME280;42713;42.676;23.352;2022-08-14T00:33:58;94236.75;;;19.28;77.14
56831;BME280;42713;42.676;23.352;2022-08-14T00:36:23;94229.22;;;19.30;76.83
56831;BME280;42713;42.676;23.352;2022-08-14T00:38:50;94232.19;;;19.28;76.99
56831;BME280;42713;42.676;23.352;2022-08-14T00:41:16;94233.94;;;19.24;77.08
56831;BME280;42713;42.676;23.352;2022-08-14T00:43:44;94239.69;;;19.26;77.32
56831;BME280;42713;42.676;23.352;2022-08-14T00:46:10;94236.59;;;19.24;77.71
56831;BME280;42713;42.676;23.352;2022-08-14T00:48:36;94232.81;;;19.25;77.89
56831;BME280;42713;42.676;23.352;2022-08-14T00:51:06;94229.06;;;19.26;77.67
56831;BME280;42713;42.676;23.352;2022-08-14T00:53:34;94226.41;;;19.26;77.53
56831;BME280;42713;42.676;23.352;2022-08-14T00:56:01;94223.16;;;19.29;77.15
56831;BME280;42713;42.676;23.352;2022-08-14T00:58:27;94224.56;;;19.27;77.30
56831;BME280;42713;42.676;23.352;2022-08-14T01:00:56;94211.75;;;19.29;77.07
56831;BME280;42713;42.676;23.352;2022-08-14T01:03:24;94205.03;;;19.32;76.99
56831;BME280;42713;42.676;23.352;2022-08-14T01:05:51;94200.81;;;19.31;77.05
56831;BME280;42713;42.676;23.352;2022-08-14T01:08:19;94205.81;;;19.32;77.28
56831;BME280;42713;42.676;23.352;2022-08-14T01:10:46;94206.28;;;19.34;76.97
56831;BME280;42713;42.676;23.352;2022-08-14T01:13:21;94214.88;;;19.31;76.56
56831;BME280;42713;42.676;23.352;2022-08-14T01:15:51;94202.38;;;19.32;76.87
56831;BME280;42713;42.676;23.352;2022-08-14T01:18:18;94202.88;;;19.34;77.08
56831;BME280;42713;42.676;23.352;2022-08-14T01:21:03;94186.75;;;19.30;77.62
56831;BME280;42713;42.676;23.352;2022-08-14T01:23:33;94193.00;;;19.34;77.45
56831;BME280;42713;42.676;23.352;2022-08-14T01:25:59;94192.53;;;19.32;77.57
56831;BME280;42713;42.676;23.352;2022-08-14T01:28:25;94187.88;;;19.29;77.64
56831;BME280;42713;42.676;23.352;2022-08-14T01:30:52;94188.63;;;19.29;77.62
56831;BME280;42713;42.676;23.352;2022-08-14T01:33:22;94185.50;;;19.27;77.77
56831;BME280;42713;42.676;23.352;2022-08-14T01:35:48;94192.06;;;19.30;77.59
56831;BME280;42713;42.676;23.352;2022-08-14T01:38:13;94195.66;;;19.25;77.84
56831;BME280;42713;42.676;23.352;2022-08-14T01:40:39;94190.16;;;19.22;78.31
56831;BME280;42713;42.676;23.352;2022-08-14T01:43:12;94197.22;;;19.26;78.18
56831;BME280;42713;42.676;23.352;2022-08-14T01:45:40;94196.75;;;19.24;77.85
56831;BME280;42713;42.676;23.352;2022-08-14T01:48:06;94190.66;;;19.24;77.79
56831;BME280;42713;42.676;23.352;2022-08-14T01:50:33;94195.47;;;19.22;77.44
56831;BME280;42713;42.676;23.352;2022-08-14T01:52:58;94196.88;;;19.19;77.05
56831;BME280;42713;42.676;23.352;2022-08-14T01:55:25;94191.09;;;19.17;77.19
56831;BME280;42713;42.676;23.352;2022-08-14T01:57:57;94194.22;;;19.19;77.50
56831;BME280;42713;42.676;23.352;2022-08-14T02:00:23;94176.59;;;19.15;77.18
56831;BME280;42713;42.676;23.352;2022-08-14T02:02:49;94186.88;;;19.16;77.37
56831;BME280;42713;42.676;23.352;2022-08-14T02:05:14;94185.94;;;19.12;77.58
56831;BME280;42713;42.676;23.352;2022-08-14T02:07:40;94191.75;;;19.14;77.30
56831;BME280;42713;42.676;23.352;2022-08-14T02:10:09;94194.69;;;19.12;77.96
56831;BME280;42713;42.676;23.352;2022-08-14T02:12:35;94193.31;;;19.15;77.89
56831;BME280;42713;42.676;23.352;2022-08-14T02:15:05;94190.47;;;19.11;78.16
56831;BME280;42713;42.676;23.352;2022-08-14T02:17:34;94179.84;;;19.11;78.17
56831;BME280;42713;42.676;23.352;2022-08-14T02:20:00;94178.28;;;19.10;77.97
56831;BME280;42713;42.676;23.352;2022-08-14T02:22:26;94179.84;;;19.11;77.76
56831;BME280;42713;42.676;23.352;2022-08-14T02:24:51;94181.56;;;19.07;77.61
56831;BME280;42713;42.676;23.352;2022-08-14T02:27:17;94168.59;;;19.06;78.19
56831;BME280;42713;42.676;23.352;2022-08-14T02:29:44;94176.88;;;19.04;77.32
56831;BME280;42713;42.676;23.352;2022-08-14T02:32:09;94173.09;;;18.96;77.16
56831;BME280;42713;42.676;23.352;2022-08-14T02:34:35;94173.91;;;18.97;76.99
56831;BME280;42713;42.676;23.352;2022-08-14T02:37:06;94176.81;;;18.87;77.19
56831;BME280;42713;42.676;23.352;2022-08-14T02:39:42;94177.41;;;18.83;77.28
56831;BME280;42713;42.676;23.352;2022-08-14T02:42:11;94184.13;;;18.81;77.30
56831;BME280;42713;42.676;23.352;2022-08-14T02:44:39;94176.59;;;18.74;77.48
56831;BME280;42713;42.676;23.352;2022-08-14T02:47:05;94178.16;;;18.75;78.05
56831;BME280;42713;42.676;23.352;2022-08-14T02:49:32;94180.50;;;18.77;78.06
56831;BME280;42713;42.676;23.352;2022-08-14T02:51:57;94178.66;;;18.77;77.86
56831;BME280;42713;42.676;23.352;2022-08-14T02:54:24;94169.28;;;18.80;77.40
56831;BME280;42713;42.676;23.352;2022-08-14T02:56:56;94165.22;;;18.82;76.93
56831;BME280;42713;42.676;23.352;2022-08-14T02:59:23;94166.16;;;18.78;77.26
56831;BME280;42713;42.676;23.352;2022-08-14T03:01:49;94170.84;;;18.81;77.95
56831;BME280;42713;42.676;23.352;2022-08-14T03:04:15;94180.38;;;18.82;77.09
56831;BME280;42713;42.676;23.352;2022-08-14T03:06:41;94174.75;;;18.83;77.25
56831;BME280;42713;42.676;23.352;2022-08-14T03:09:10;94174.75;;;18.83;77.04
56831;BME280;42713;42.676;23.352;2022-08-14T03:11:36;94178.03;;;18.80;77.23
56831;BME280;42713;42.676;23.352;2022-08-14T03:14:01;94185.03;;;18.76;77.65
56831;BME280;42713;42.676;23.352;2022-08-14T03:16:27;94169.72;;;18.73;77.97
56831;BME280;42713;42.676;23.352;2022-08-14T03:19:00;94180.63;;;18.63;78.37
56831;BME280;42713;42.676;23.352;2022-08-14T03:21:26;94176.09;;;18.63;78.68
56831;BME280;42713;42.676;23.352;2022-08-14T03:23:54;94174.66;;;18.57;78.58
56831;BME280;42713;42.676;23.352;2022-08-14T03:26:28;94168.91;;;18.55;78.87
56831;BME280;42713;42.676;23.352;2022-08-14T03:28:54;94180.75;;;18.58;79.05
56831;BME280;42713;42.676;23.352;2022-08-14T03:31:20;94175.94;;;18.60;78.38
56831;BME280;42713;42.676;23.352;2022-08-14T03:33:48;94184.19;;;18.58;78.22
56831;BME280;42713;42.676;23.352;2022-08-14T03:36:15;94193.22;;;18.57;78.61
56831;BME280;42713;42.676;23.352;2022-08-14T03:38:43;94202.91;;;18.62;78.83
56831;BME280;42713;42.676;23.352;2022-08-14T03:41:11;94198.41;;;18.62;78.60
56831;BME280;42713;42.676;23.352;2022-08-14T03:43:42;94199.97;;;18.63;78.49
56831;BME280;42713;42.676;23.352;2022-08-14T03:46:09;94190.88;;;18.56;78.76
56831;BME280;42713;42.676;23.352;2022-08-14T03:48:35;94198.78;;;18.47;78.99
56831;BME280;42713;42.676;23.352;2022-08-14T03:51:05;94194.59;;;18.46;79.71
56831;BME280;42713;42.676;23.352;2022-08-14T03:53:36;94203.50;;;18.50;79.84
56831;BME280;42713;42.676;23.352;2022-08-14T03:56:03;94197.44;;;18.58;79.17
56831;BME280;42713;42.676;23.352;2022-08-14T03:58:30;94200.41;;;18.57;79.13
56831;BME280;42713;42.676;23.352;2022-08-14T04:00:57;94200.41;;;18.57;79.36
56831;BME280;42713;42.676;23.352;2022-08-14T04:03:23;94197.28;;;18.55;79.68
56831;BME280;42713;42.676;23.352;2022-08-14T04:05:53;94193.72;;;18.59;80.29
56831;BME280;42713;42.676;23.352;2022-08-14T04:08:19;94197.81;;;18.65;80.02
56831;BME280;42713;42.676;23.352;2022-08-14T04:10:46;94199.81;;;18.69;79.84
56831;BME280;42713;42.676;23.352;2022-08-14T04:13:12;94203.72;;;18.71;79.71
56831;BME280;42713;42.676;23.352;2022-08-14T04:15:46;94199.41;;;18.75;79.71
56831;BME280;42713;42.676;23.352;2022-08-14T04:18:12;94200.47;;;18.74;79.59
56831;BME280;42713;42.676;23.352;2022-08-14T04:20:39;94203.63;;;18.76;79.24
56831;BME280;42713;42.676;23.352;2022-08-14T04:23:08;94207.50;;;18.79;79.15
56831;BME280;42713;42.676;23.352;2022-08-14T04:25:35;94198.94;;;18.82;79.56
56831;BME280;42713;42.676;23.352;2022-08-14T04:28:05;94201.00;;;18.85;79.52
56831;BME280;42713;42.676;23.352;2022-08-14T04:30:32;94200.38;;;18.88;78.51
56831;BME280;42713;42.676;23.352;2022-08-14T04:33:05;94196.16;;;18.87;78.24
56831;BME280;42713;42.676;23.352;2022-08-14T04:35:34;94197.72;;;18.88;77.94
56831;BME280;42713;42.676;23.352;2022-08-14T04:38:08;94193.97;;;18.89;78.38
56831;BME280;42713;42.676;23.352;2022-08-14T04:40:53;94191.81;;;18.91;78.73
56831;BME280;42713;42.676;23.352;2022-08-14T04:43:37;94196.53;;;18.94;78.70
56831;BME280;42713;42.676;23.352;2022-08-14T04:46:10;94199.19;;;18.94;78.29
56831;BME280;42713;42.676;23.352;2022-08-14T04:48:36;94191.69;;;18.96;77.97
56831;BME280;42713;42.676;23.352;2022-08-14T04:51:04;94197.78;;;18.97;78.16
56831;BME280;42713;42.676;23.352;2022-08-14T04:53:30;94200.13;;;18.98;78.21
56831;BME280;42713;42.676;23.352;2022-08-14T04:55:57;94196.84;;;19.02;77.76
56831;BME280;42713;42.676;23.352;2022-08-14T04:58:25;94194.53;;;19.00;77.46
56831;BME280;42713;42.676;23.352;2022-08-14T05:00:52;94201.19;;;18.97;77.63
56831;BME280;42713;42.676;23.352;2022-08-14T05:03:27;94200.91;;;18.99;77.52
56831;BME280;42713;42.676;23.352;2022-08-14T05:05:56;94195.91;;;18.97;77.39
56831;BME280;42713;42.676;23.352;2022-08-14T05:08:23;94196.97;;;18.96;77.62
56831;BME280;42713;42.676;23.352;2022-08-14T05:10:53;94192.63;;;19.01;77.67
56831;BME280;42713;42.676;23.352;2022-08-14T05:13:20;94187.16;;;18.97;78.07
56831;BME280;42713;42.676;23.352;2022-08-14T05:15:48;94192.31;;;19.02;78.41
56831;BME280;42713;42.676;23.352;2022-08-14T05:18:22;94197.50;;;19.07;79.35
56831;BME280;42713;42.676;23.352;2022-08-14T05:20:55;94206.22;;;19.08;79.40
56831;BME280;42713;42.676;23.352;2022-08-14T05:23:23;94194.22;;;19.10;79.28
56831;BME280;42713;42.676;23.352;2022-08-14T05:25:51;94200.78;;;19.13;79.50
56831;BME280;42713;42.676;23.352;2022-08-14T05:28:24;94197.34;;;19.12;79.60
56831;BME280;42713;42.676;23.352;2022-08-14T05:30:52;94201.09;;;19.11;79.36
56831;BME280;42713;42.676;23.352;2022-08-14T05:33:19;94189.22;;;19.09;79.04
56831;BME280;42713;42.676;23.352;2022-08-14T05:35:49;94193.31;;;19.15;79.07
56831;BME280;42713;42.676;23.352;2022-08-14T05:38:17;94198.63;;;19.15;78.93
56831;BME280;42713;42.676;23.352;2022-08-14T05:40:43;94198.13;;;19.13;78.94
56831;BME280;42713;42.676;23.352;2022-08-14T05:43:09;94202.19;;;19.19;78.09
56831;BME280;42713;42.676;23.352;2022-08-14T05:45:35;94198.63;;;19.15;78.24
56831;BME280;42713;42.676;23.352;2022-08-14T05:48:01;94199.88;;;19.18;78.66
56831;BME280;42713;42.676;23.352;2022-08-14T05:50:27;94203.75;;;19.20;78.32
56831;BME280;42713;42.676;23.352;2022-08-14T05:52:53;94204.38;;;19.17;77.76
56831;BME280;42713;42.676;23.352;2022-08-14T05:55:19;94205.34;;;19.21;77.55
56831;BME280;42713;42.676;23.352;2022-08-14T06:00:27;94204.09;;;19.27;78.48
56831;BME280;42713;42.676;23.352;2022-08-14T06:02:53;94187.38;;;19.27;78.40
56831;BME280;42713;42.676;23.352;2022-08-14T06:05:23;94201.31;;;19.33;78.38
56831;BME280;42713;42.676;23.352;2022-08-14T06:07:49;94199.88;;;19.35;78.63
56831;BME280;42713;42.676;23.352;2022-08-14T06:10:15;94196.16;;;19.36;77.77
56831;BME280;42713;42.676;23.352;2022-08-14T06:12:41;94203.78;;;19.38;76.64
56831;BME280;42713;42.676;23.352;2022-08-14T06:15:07;94204.59;;;19.38;76.93
56831;BME280;42713;42.676;23.352;2022-08-14T06:17:48;94207.69;;;19.40;77.52
56831;BME280;42713;42.676;23.352;2022-08-14T06:20:15;94208.50;;;19.41;77.54
56831;BME280;42713;42.676;23.352;2022-08-14T06:22:42;94214.88;;;19.40;76.44
56831;BME280;42713;42.676;23.352;2022-08-14T06:25:09;94206.16;;;19.39;77.58
56831;BME280;42713;42.676;23.352;2022-08-14T06:27:39;94211.31;;;19.44;78.08
56831;BME280;42713;42.676;23.352;2022-08-14T06:30:06;94208.97;;;19.43;77.52
56831;BME280;42713;42.676;23.352;2022-08-14T06:32:32;94213.34;;;19.48;77.26
56831;BME280;42713;42.676;23.352;2022-08-14T06:34:59;94214.13;;;19.48;77.50
56831;BME280;42713;42.676;23.352;2022-08-14T06:37:24;94222.56;;;19.50;76.54
56831;BME280;42713;42.676;23.352;2022-08-14T06:39:51;94222.69;;;19.45;76.87
56831;BME280;42713;42.676;23.352;2022-08-14T06:42:17;94221.16;;;19.44;77.22
56831;BME280;42713;42.676;23.352;2022-08-14T06:44:42;94225.81;;;19.47;76.89
56831;BME280;42713;42.676;23.352;2022-08-14T06:47:09;94223.81;;;19.44;77.27
56831;BME280;42713;42.676;23.352;2022-08-14T06:49:35;94217.22;;;19.41;77.75
56831;BME280;42713;42.676;23.352;2022-08-14T06:52:02;94218.78;;;19.42;77.86
56831;BME280;42713;42.676;23.352;2022-08-14T06:54:29;94220.19;;;19.40;77.88
56831;BME280;42713;42.676;23.352;2022-08-14T06:56:55;94224.09;;;19.42;77.92
56831;BME280;42713;42.676;23.352;2022-08-14T06:59:21;94225.34;;;19.45;78.34
56831;BME280;42713;42.676;23.352;2022-08-14T07:01:46;94227.72;;;19.47;78.20
56831;BME280;42713;42.676;23.352;2022-08-14T07:04:31;94224.91;;;19.52;77.49
56831;BME280;42713;42.676;23.352;2022-08-14T07:07:15;94222.25;;;19.52;77.62
56831;BME280;42713;42.676;23.352;2022-08-14T07:09:40;94230.38;;;19.55;77.74
56831;BME280;42713;42.676;23.352;2022-08-14T07:12:06;94227.25;;;19.53;77.78
56831;BME280;42713;42.676;23.352;2022-08-14T07:14:33;94229.28;;;19.56;77.64
56831;BME280;42713;42.676;23.352;2022-08-14T07:16:59;94232.88;;;19.60;77.50
56831;BME280;42713;42.676;23.352;2022-08-14T07:19:24;94224.91;;;19.60;77.48
56831;BME280;42713;42.676;23.352;2022-08-14T07:21:50;94225.41;;;19.63;77.53
56831;BME280;42713;42.676;23.352;2022-08-14T07:24:16;94231.00;;;19.70;77.77
56831;BME280;42713;42.676;23.352;2022-08-14T07:26:42;94231.97;;;19.74;77.71
56831;BME280;42713;42.676;23.352;2022-08-14T07:29:07;94228.06;;;19.80;78.16
56831;BME280;42713;42.676;23.352;2022-08-14T07:31:33;94223.22;;;19.82;77.68
56831;BME280;42713;42.676;23.352;2022-08-14T07:33:58;94228.38;;;19.87;76.98
56831;BME280;42713;42.676;23.352;2022-08-14T07:36:24;94227.91;;;19.94;75.98
56831;BME280;42713;42.676;23.352;2022-08-14T07:38:49;94222.00;;;19.97;75.50
56831;BME280;42713;42.676;23.352;2022-08-14T07:41:15;94228.53;;;20.00;75.63
56831;BME280;42713;42.676;23.352;2022-08-14T07:43:41;94225.09;;;20.08;74.38
56831;BME280;42713;42.676;23.352;2022-08-14T07:46:08;94231.81;;;20.14;72.05
56831;BME280;42713;42.676;23.352;2022-08-14T07:48:40;94231.66;;;20.19;71.23
56831;BME280;42713;42.676;23.352;2022-08-14T07:51:08;94230.84;;;20.28;72.20
56831;BME280;42713;42.676;23.352;2022-08-14T07:53:34;94233.34;;;20.33;72.97
56831;BME280;42713;42.676;23.352;2022-08-14T07:56:00;94235.56;;;20.31;71.49
56831;BME280;42713;42.676;23.352;2022-08-14T07:58:25;94238.34;;;20.34;71.56
56831;BME280;42713;42.676;23.352;2022-08-14T08:00:54;94237.72;;;20.37;71.71
56831;BME280;42713;42.676;23.352;2022-08-14T08:03:22;94230.19;;;20.40;71.68
56831;BME280;42713;42.676;23.352;2022-08-14T08:05:49;94235.38;;;20.36;69.45
56831;BME280;42713;42.676;23.352;2022-08-14T08:08:15;94244.78;;;20.25;68.75
56831;BME280;42713;42.676;23.352;2022-08-14T08:10:42;94238.69;;;20.24;69.91
56831;BME280;42713;42.676;23.352;2022-08-14T08:13:11;94233.97;;;20.21;70.84
56831;BME280;42713;42.676;23.352;2022-08-14T08:15:46;94236.50;;;20.26;69.51
56831;BME280;42713;42.676;23.352;2022-08-14T08:18:14;94231.03;;;20.14;68.87
56831;BME280;42713;42.676;23.352;2022-08-14T08:20:45;94227.44;;;20.10;67.77
56831;BME280;42713;42.676;23.352;2022-08-14T08:23:12;94228.69;;;20.03;67.61
56831;BME280;42713;42.676;23.352;2022-08-14T08:25:40;94231.03;;;19.87;67.03
56831;BME280;42713;42.676;23.352;2022-08-14T08:28:18;94230.22;;;19.78;68.84
56831;BME280;42713;42.676;23.352;2022-08-14T08:31:05;94219.16;;;19.67;67.94
56831;BME280;42713;42.676;23.352;2022-08-14T08:33:32;94220.22;;;19.66;68.58
56831;BME280;42713;42.676;23.352;2022-08-14T08:36:07;94223.66;;;19.67;68.28
56831;BME280;42713;42.676;23.352;2022-08-14T08:38:33;94221.78;;;19.76;70.37
56831;BME280;42713;42.676;23.352;2022-08-14T08:41:00;94211.63;;;19.78;69.15
56831;BME280;42713;42.676;23.352;2022-08-14T08:43:32;94226.97;;;19.90;69.39
56831;BME280;42713;42.676;23.352;2022-08-14T08:46:06;94226.81;;;19.86;70.25
56831;BME280;42713;42.676;23.352;2022-08-14T08:51:28;94224.78;;;20.10;69.70
56831;BME280;42713;42.676;23.352;2022-08-14T08:53:59;94226.81;;;20.21;68.78
56831;BME280;42713;42.676;23.352;2022-08-14T08:56:33;94223.97;;;20.27;67.18
56831;BME280;42713;42.676;23.352;2022-08-14T08:58:59;94218.78;;;20.30;67.15
56831;BME280;42713;42.676;23.352;2022-08-14T09:01:30;94214.09;;;20.36;66.98
56831;BME280;42713;42.676;23.352;2022-08-14T09:04:02;94205.31;;;20.44;67.82
56831;BME280;42713;42.676;23.352;2022-08-14T09:06:28;94205.75;;;20.55;67.04
56831;BME280;42713;42.676;23.352;2022-08-14T09:08:53;94201.97;;;20.65;65.94
56831;BME280;42713;42.676;23.352;2022-08-14T09:11:19;94200.38;;;20.64;65.25
56831;BME280;42713;42.676;23.352;2022-08-14T09:13:45;94207.59;;;20.63;64.64
56831;BME280;42713;42.676;23.352;2022-08-14T09:16:10;94192.28;;;20.60;64.42
56831;BME280;42713;42.676;23.352;2022-08-14T09:18:38;94198.53;;;20.56;65.32
56831;BME280;42713;42.676;23.352;2022-08-14T09:21:05;94193.09;;;20.52;65.15
56831;BME280;42713;42.676;23.352;2022-08-14T09:23:32;94196.34;;;20.58;64.60
56831;BME280;42713;42.676;23.352;2022-08-14T09:25:57;94185.38;;;20.59;64.67
56831;BME280;42713;42.676;23.352;2022-08-14T09:28:23;94194.13;;;20.68;66.07
56831;BME280;42713;42.676;23.352;2022-08-14T09:30:51;94189.72;;;20.81;66.00
56831;BME280;42713;42.676;23.352;2022-08-14T09:33:30;94188.91;;;20.90;65.69
56831;BME280;42713;42.676;23.352;2022-08-14T09:39:18;94192.78;;;21.01;64.58
56831;BME280;42713;42.676;23.352;2022-08-14T09:44:43;94199.31;;;21.04;64.97
56831;BME280;42713;42.676;23.352;2022-08-14T09:47:12;94197.66;;;21.20;65.10
56831;BME280;42713;42.676;23.352;2022-08-14T09:49:39;94194.91;;;21.08;63.96
56831;BME280;42713;42.676;23.352;2022-08-14T09:52:09;94198.09;;;21.01;63.43
56831;BME280;42713;42.676;23.352;2022-08-14T09:54:40;94197.13;;;21.06;64.69
56831;BME280;42713;42.676;23.352;2022-08-14T09:57:09;94188.09;;;21.19;64.95
56831;BME280;42713;42.676;23.352;2022-08-14T09:59:53;94189.50;;;21.25;64.01
56831;BME280;42713;42.676;23.352;2022-08-14T10:02:23;94189.44;;;21.34;63.93
56831;BME280;42713;42.676;23.352;2022-08-14T10:05:09;94191.19;;;21.30;63.73
56831;BME280;42713;42.676;23.352;2022-08-14T10:07:55;94182.91;;;21.23;63.00
56831;BME280;42713;42.676;23.352;2022-08-14T10:10:37;94189.16;;;21.27;63.41
56831;BME280;42713;42.676;23.352;2022-08-14T10:13:06;94187.94;;;21.45;64.18
56831;BME280;42713;42.676;23.352;2022-08-14T10:15:37;94190.19;;;21.65;61.97
56831;BME280;42713;42.676;23.352;2022-08-14T10:20:49;94187.22;;;21.57;60.89
56831;BME280;42713;42.676;23.352;2022-08-14T10:23:18;94186.09;;;21.67;60.22
56831;BME280;42713;42.676;23.352;2022-08-14T10:25:46;94181.94;;;21.79;60.05
56831;BME280;42713;42.676;23.352;2022-08-14T10:28:21;94170.41;;;21.66;59.92
56831;BME280;42713;42.676;23.352;2022-08-14T10:30:47;94175.22;;;21.51;60.87
56831;BME280;42713;42.676;23.352;2022-08-14T10:33:28;94172.19;;;21.61;61.18
56831;BME280;42713;42.676;23.352;2022-08-14T10:35:55;94170.69;;;21.73;61.31
56831;BME280;42713;42.676;23.352;2022-08-14T10:38:31;94163.28;;;21.79;60.09
56831;BME280;42713;42.676;23.352;2022-08-14T10:41:11;94167.22;;;21.72;60.61
56831;BME280;42713;42.676;23.352;2022-08-14T10:43:39;94162.69;;;21.73;60.38
56831;BME280;42713;42.676;23.352;2022-08-14T10:46:17;94157.75;;;21.63;59.41
56831;BME280;42713;42.676;23.352;2022-08-14T10:48:59;94144.75;;;21.61;60.06
56831;BME280;42713;42.676;23.352;2022-08-14T10:51:28;94141.44;;;21.64;60.44
56831;BME280;42713;42.676;23.352;2022-08-14T10:53:54;94151.91;;;21.69;59.82
56831;BME280;42713;42.676;23.352;2022-08-14T10:56:28;94128.03;;;21.52;59.16
56831;BME280;42713;42.676;23.352;2022-08-14T10:59:04;94140.44;;;21.69;58.70
56831;BME280;42713;42.676;23.352;2022-08-14T11:01:32;94134.94;;;21.74;59.47
56831;BME280;42713;42.676;23.352;2022-08-14T11:03:59;94128.28;;;21.80;58.71
56831;BME280;42713;42.676;23.352;2022-08-14T11:06:25;94129.97;;;21.85;57.60
56831;BME280;42713;42.676;23.352;2022-08-14T11:08:51;94124.63;;;21.85;58.24
56831;BME280;42713;42.676;23.352;2022-08-14T11:11:18;94129.75;;;21.90;58.44
56831;BME280;42713;42.676;23.352;2022-08-14T11:13:43;94122.31;;;21.96;57.92
56831;BME280;42713;42.676;23.352;2022-08-14T11:16:14;94120.69;;;22.03;57.64
56831;BME280;42713;42.676;23.352;2022-08-14T11:18:45;94123.91;;;22.09;57.36
56831;BME280;42713;42.676;23.352;2022-08-14T11:21:16;94127.13;;;22.02;57.06
56831;BME280;42713;42.676;23.352;2022-08-14T11:23:44;94111.28;;;22.18;56.74
56831;BME280;42713;42.676;23.352;2022-08-14T11:26:13;94107.94;;;22.34;56.67
56831;BME280;42713;42.676;23.352;2022-08-14T11:28:42;94107.00;;;22.51;57.86
56831;BME280;42713;42.676;23.352;2022-08-14T11:31:10;94103.88;;;22.74;56.26
56831;BME280;42713;42.676;23.352;2022-08-14T11:33:38;94100.78;;;22.72;55.19
56831;BME280;42713;42.676;23.352;2022-08-14T11:36:06;94106.75;;;22.81;56.56
56831;BME280;42713;42.676;23.352;2022-08-14T11:38:40;94114.13;;;22.84;53.90
56831;BME280;42713;42.676;23.352;2022-08-14T11:41:07;94114.78;;;22.81;53.08
56831;BME280;42713;42.676;23.352;2022-08-14T11:43:40;94118.66;;;22.83;53.64
56831;BME280;42713;42.676;23.352;2022-08-14T11:46:07;94116.22;;;22.78;53.60
56831;BME280;42713;42.676;23.352;2022-08-14T11:48:54;94114.22;;;22.75;53.76
56831;BME280;42713;42.676;23.352;2022-08-14T11:51:23;94117.44;;;22.81;54.08
56831;BME280;42713;42.676;23.352;2022-08-14T11:54:10;94119.91;;;22.74;53.26
56831;BME280;42713;42.676;23.352;2022-08-14T11:56:39;94118.00;;;22.74;53.35
56831;BME280;42713;42.676;23.352;2022-08-14T11:59:15;94113.47;;;22.75;52.37
56831;BME280;42713;42.676;23.352;2022-08-14T12:01:42;94109.56;;;22.72;52.86
56831;BME280;42713;42.676;23.352;2022-08-14T12:04:10;94106.91;;;22.72;52.58
56831;BME280;42713;42.676;23.352;2022-08-14T12:06:46;94116.13;;;22.75;53.46
56831;BME280;42713;42.676;23.352;2022-08-14T12:09:13;94113.00;;;22.85;53.48
56831;BME280;42713;42.676;23.352;2022-08-14T12:11:40;94113.22;;;22.92;52.73
56831;BME280;42713;42.676;23.352;2022-08-14T12:14:07;94115.66;;;22.97;52.16
56831;BME280;42713;42.676;23.352;2022-08-14T12:16:33;94104.66;;;22.99;52.16
56831;BME280;42713;42.676;23.352;2022-08-14T12:19:00;94096.38;;;23.04;52.24
56831;BME280;42713;42.676;23.352;2022-08-14T12:21:26;94098.59;;;23.14;52.38
56831;BME280;42713;42.676;23.352;2022-08-14T12:24:04;94100.59;;;23.17;52.67
56831;BME280;42713;42.676;23.352;2022-08-14T12:26:31;94089.59;;;23.19;52.88
56831;BME280;42713;42.676;23.352;2022-08-14T12:29:10;94088.47;;;23.20;53.39
56831;BME280;42713;42.676;23.352;2022-08-14T12:31:37;94080.16;;;23.22;53.83
56831;BME280;42713;42.676;23.352;2022-08-14T12:34:05;94082.47;;;23.23;54.70
56831;BME280;42713;42.676;23.352;2022-08-14T12:36:33;94087.47;;;23.25;54.93
56831;BME280;42713;42.676;23.352;2022-08-14T12:39:00;94082.56;;;23.27;54.14
56831;BME280;42713;42.676;23.352;2022-08-14T12:41:30;94091.69;;;23.26;54.34
56831;BME280;42713;42.676;23.352;2022-08-14T12:44:00;94090.50;;;23.23;53.82
56831;BME280;42713;42.676;23.352;2022-08-14T12:49:02;94087.38;;;23.09;54.67
56831;BME280;42713;42.676;23.352;2022-08-14T12:51:33;94079.69;;;23.07;54.80
56831;BME280;42713;42.676;23.352;2022-08-14T12:54:10;94081.47;;;23.03;55.36
56831;BME280;42713;42.676;23.352;2022-08-14T12:56:35;94079.41;;;22.96;55.47
56831;BME280;42713;42.676;23.352;2022-08-14T12:59:01;94076.28;;;22.94;55.87
56831;BME280;42713;42.676;23.352;2022-08-14T13:01:30;94073.16;;;22.92;55.77
56831;BME280;42713;42.676;23.352;2022-08-14T13:04:16;94077.38;;;22.93;56.22
56831;BME280;42713;42.676;23.352;2022-08-14T13:06:43;94071.25;;;22.93;56.05
56831;BME280;42713;42.676;23.352;2022-08-14T13:09:10;94072.06;;;22.93;57.54
56831;BME280;42713;42.676;23.352;2022-08-14T13:11:41;94071.59;;;22.91;58.67
56831;BME280;42713;42.676;23.352;2022-08-14T13:14:10;94064.69;;;22.90;58.93
56831;BME280;42713;42.676;23.352;2022-08-14T13:16:39;94056.50;;;22.83;58.89